Piopolis, Illinois
Current Conditions -  °F | °C
As of 12:55 PM on Sunday 23 Nov 2014 (Local Time) from KFWC Reporting Station
Overcast Overcast  
Wind Chill: 54°   Ceiling: 1500
Heat Index: 54°   Visibility: 10mi
Dew Point: 48°   Wind: 10mph
Humidity: 82%   Direction: 130°SE
Pressure: 29.54"   Gusts: NA
Location:  38.1018°N, 88.4953°W
Report Text: KFWC 231855Z AUTO 13009KT 10SM OVC015 12/09 A2954 RMK AO1 T01200091
Loading
Personal Weather Stations






























Interactive Weather Map New forecast layout! Learn more

10-Day Weather Forecast

Advertisements
Track Severe Weather on mobile